Time;durP1;ratioP1;P1;durP2;ratioP2;P2;SDS_P1;SDS_P2;PMS_P1;PMS_P2;Temp;Humidity;BMP_temperature;BMP_pressure;BME280_temperature;BME280_humidity;BME280_pressure;Samples;Min_cycle;Max_cycle;Signal;HPM_P1;HPM_P2
2022/05/01 00:01:58;;;;;;;24.85;13.93;;;;;;;5.78;49.50;101533.92;1599468;89;21070;-74
2022/05/01 00:04:24;;;;;;;24.50;12.73;;;;;;;5.75;49.58;101533.87;1602463;89;21810;-75
2022/05/01 00:06:51;;;;;;;25.75;13.25;;;;;;;5.70;49.58;101534.23;1604536;88;26859;-75
2022/05/01 00:09:17;;;;;;;25.10;13.95;;;;;;;5.63;49.64;101537.10;1604960;88;21417;-75
2022/05/01 00:11:43;;;;;;;20.80;13.13;;;;;;;5.59;49.72;101532.75;1577701;89;20923;-74
2022/05/01 00:14:09;;;;;;;23.30;14.73;;;;;;;5.56;49.76;101536.53;1604836;89;21721;-74
2022/05/01 00:16:35;;;;;;;34.35;16.62;;;;;;;5.51;49.86;101535.58;1604933;89;20935;-74
2022/05/01 00:19:01;;;;;;;31.83;16.10;;;;;;;5.44;49.95;101532.45;1582892;88;20998;-74
2022/05/01 00:21:27;;;;;;;35.68;17.23;;;;;;;5.27;50.03;101510.73;1519853;94;21971;-74
2022/05/01 00:23:53;;;;;;;25.37;14.68;;;;;;;5.37;50.09;101532.30;1599381;89;21444;-74
2022/05/01 00:26:20;;;;;;;26.75;14.63;;;;;;;5.36;50.25;101528.00;1596082;88;21036;-74
2022/05/01 00:28:46;;;;;;;30.85;14.20;;;;;;;5.30;50.33;101529.61;1589301;89;21017;-74
2022/05/01 00:31:16;;;;;;;32.35;13.88;;;;;;;5.24;50.40;101526.05;1520050;92;21009;-74
2022/05/01 00:36:27;;;;;;;33.23;15.85;;;;;;;5.19;50.49;101524.71;1590380;89;20968;-75
2022/05/01 00:39:03;;;;;;;25.35;15.05;;;;;;;5.18;50.56;101528.52;1580753;89;21461;-74
2022/05/01 00:41:39;;;;;;;33.00;17.82;;;;;;;5.16;50.60;101522.08;1602583;88;20968;-74
2022/05/01 00:44:15;;;;;;;34.10;15.93;;;;;;;5.10;50.66;101526.22;1580831;88;21007;-73
2022/05/01 00:46:47;;;;;;;25.88;15.32;;;;;;;5.05;50.78;101520.12;1614119;88;20967;-74
2022/05/01 00:49:26;;;;;;;30.35;14.55;;;;;;;5.00;50.75;101521.31;1618553;88;21388;-74
2022/05/01 00:52:09;;;;;;;28.40;16.20;;;;;;;4.97;50.88;101523.39;1623291;88;20963;-74
2022/05/01 00:54:39;;;;;;;30.65;16.10;;;;;;;4.94;51.04;101520.77;1623240;88;21395;-74
2022/05/01 00:57:07;;;;;;;29.60;17.62;;;;;;;4.91;51.02;101521.98;1622663;88;21431;-74
2022/05/01 00:59:35;;;;;;;37.67;17.27;;;;;;;4.84;51.00;101521.81;1616218;88;20959;-74
2022/05/01 01:02:06;;;;;;;33.75;15.85;;;;;;;4.77;51.06;101522.09;1618436;88;21420;-74
2022/05/01 01:04:32;;;;;;;31.97;18.02;;;;;;;4.71;51.13;101520.67;1623567;88;20971;-74
2022/05/01 01:06:58;;;;;;;35.33;17.07;;;;;;;4.65;51.22;101515.44;1612984;88;20943;-74
2022/05/01 01:09:24;;;;;;;33.10;17.75;;;;;;;4.64;51.34;101520.98;1623293;88;21383;-75
2022/05/01 01:12:53;;;;;;;33.00;18.33;;;;;;;4.65;51.42;101521.44;1623668;88;20859;-74
2022/05/01 01:14:24;;;;;;;39.15;18.20;;;;;;;4.64;51.48;101518.42;1616027;88;21364;-75
2022/05/01 01:16:50;;;;;;;36.65;17.92;;;;;;;4.65;51.53;101516.73;1620733;88;20967;-74
2022/05/01 01:19:16;;;;;;;39.80;21.05;;;;;;;4.64;51.59;101517.14;1612283;88;21359;-75
2022/05/01 01:21:42;;;;;;;35.67;19.47;;;;;;;4.58;51.55;101521.26;1619084;88;20907;-75
2022/05/01 01:24:10;;;;;;;37.13;19.33;;;;;;;4.49;51.58;101519.77;1623766;88;20955;-75
2022/05/01 01:26:36;;;;;;;33.10;18.77;;;;;;;4.45;51.64;101525.23;1623651;88;20926;-75
2022/05/01 01:31:40;;;;;;;36.23;17.27;;;;;;;4.41;51.64;101522.14;1611154;88;21864;-74
2022/05/01 01:31:42;;;;;;;33.18;16.95;;;;;;;4.33;51.68;101521.09;1566513;91;21166;-74
2022/05/01 01:34:14;;;;;;;30.80;17.48;;;;;;;4.27;51.73;101523.50;1591878;88;21085;-74
2022/05/01 01:36:42;;;;;;;30.30;16.55;;;;;;;4.22;51.79;101521.25;1581979;89;21571;-74
2022/05/01 01:39:08;;;;;;;34.98;17.50;;;;;;;4.17;51.96;101521.14;1566681;91;21095;-74
2022/05/01 01:41:38;;;;;;;34.10;17.52;;;;;;;4.15;51.99;101520.68;1615083;88;21066;-74
2022/05/01 01:44:06;;;;;;;31.62;16.93;;;;;;;4.13;52.03;101523.61;1612877;88;21112;-74
2022/05/01 01:46:33;;;;;;;36.50;17.37;;;;;;;4.07;52.11;101519.20;1578581;89;21522;-74
2022/05/01 01:48:59;;;;;;;34.33;17.15;;;;;;;4.06;52.23;101517.48;1583306;90;21091;-74
2022/05/01 01:51:26;;;;;;;33.07;16.40;;;;;;;4.06;52.21;101520.03;1610477;88;20908;-74
2022/05/01 01:53:52;;;;;;;30.43;17.55;;;;;;;4.06;52.35;101516.20;1561272;90;21889;-74
2022/05/01 01:56:19;;;;;;;33.25;16.75;;;;;;;4.03;52.29;101511.41;1610122;89;21598;-74
2022/05/01 01:58:53;;;;;;;30.40;17.73;;;;;;;3.97;52.38;101509.16;1588868;89;21014;-74
2022/05/01 02:01:19;;;;;;;32.93;18.40;;;;;;;3.93;52.47;101507.76;1610572;89;20950;-74
2022/05/01 02:03:45;;;;;;;33.97;17.27;;;;;;;3.88;52.49;101507.64;1597653;89;20927;-74
2022/05/01 02:06:11;;;;;;;36.80;18.32;;;;;;;3.86;52.51;101508.02;1583301;90;21603;-74
2022/05/01 02:08:40;;;;;;;34.65;18.55;;;;;;;3.84;52.55;101507.52;1609920;89;21616;-74
2022/05/01 02:11:05;;;;;;;29.00;16.75;;;;;;;3.81;52.61;101514.70;1566887;90;21159;-74
2022/05/01 02:13:32;;;;;;;38.40;17.65;;;;;;;3.78;52.75;101510.78;1556526;91;21171;-75
2022/05/01 02:15:59;;;;;;;35.13;17.00;;;;;;;3.74;52.80;101509.39;1585378;90;21001;-75
2022/05/01 02:18:25;;;;;;;36.00;17.67;;;;;;;3.73;52.88;101511.08;1602412;89;20928;-74
2022/05/01 02:23:35;;;;;;;35.08;17.20;;;;;;;3.73;52.95;101508.52;1585318;90;20937;-74
2022/05/01 02:26:01;;;;;;;29.17;16.70;;;;;;;3.69;52.96;101511.83;1598628;88;20892;-74
2022/05/01 02:28:27;;;;;;;27.82;15.00;;;;;;;3.63;53.06;101510.00;1595238;89;20951;-74
2022/05/01 02:30:53;;;;;;;26.33;15.50;;;;;;;3.61;53.21;101509.51;1612070;88;21099;-73
2022/05/01 02:33:25;;;;;;;29.02;16.45;;;;;;;3.62;53.25;101508.27;1569093;90;20941;-73
2022/05/01 02:35:51;;;;;;;34.03;16.07;;;;;;;3.61;53.31;101509.09;1560984;91;20948;-74
2022/05/01 02:38:17;;;;;;;31.35;16.55;;;;;;;3.62;53.39;101503.16;1585651;90;20970;-74
2022/05/01 02:40:44;;;;;;;36.65;17.73;;;;;;;3.60;53.41;101503.53;1609505;89;20971;-73
2022/05/01 02:43:10;;;;;;;36.53;17.47;;;;;;;3.58;53.38;101506.87;1588961;89;20979;-73
2022/05/01 02:45:38;;;;;;;34.17;17.83;;;;;;;3.50;53.30;101498.98;1607612;88;20948;-75
2022/05/01 02:48:05;;;;;;;32.45;17.67;;;;;;;3.44;53.34;101499.23;1600197;89;20885;-74
2022/05/01 02:50:31;;;;;;;31.07;16.02;;;;;;;3.38;53.45;101498.66;1602455;89;20965;-74
2022/05/01 02:52:57;;;;;;;29.73;17.20;;;;;;;3.35;53.50;101498.98;1604951;88;20919;-74
2022/05/01 02:55:23;;;;;;;33.30;17.13;;;;;;;3.29;53.53;101492.88;1605103;89;20968;-74
2022/05/01 02:57:49;;;;;;;28.85;16.15;;;;;;;3.26;53.57;101501.73;1593117;88;20944;-74
2022/05/01 03:00:18;;;;;;;27.87;15.27;;;;;;;3.23;53.71;101498.23;1605080;88;20900;-74
2022/05/01 03:02:47;;;;;;;30.37;15.75;;;;;;;3.18;53.77;101499.79;1605193;88;21388;-74
2022/05/01 03:05:15;;;;;;;26.77;15.53;;;;;;;3.13;53.82;101499.66;1600548;89;20975;-75
2022/05/01 03:07:41;;;;;;;27.80;16.57;;;;;;;3.07;54.00;101506.31;1603177;89;21127;-74
2022/05/01 03:10:10;;;;;;;29.48;16.60;;;;;;;3.09;54.12;101517.03;1602803;88;21035;-74
2022/05/01 03:12:39;;;;;;;28.50;14.90;;;;;;;3.13;54.15;101512.84;1588765;89;20945;-76
2022/05/01 03:15:09;;;;;;;35.58;16.75;;;;;;;3.11;54.11;101512.84;1599724;89;20975;-75
2022/05/01 03:23:07;;;;;;;30.55;15.85;;;;;;;3.18;54.25;101512.56;1581384;89;21064;-74
2022/05/01 03:25:35;;;;;;;30.60;17.25;;;;;;;3.12;54.22;101515.81;1600549;88;21047;-74
2022/05/01 03:28:01;;;;;;;36.42;16.52;;;;;;;3.06;54.22;101518.22;1572435;88;21156;-74
2022/05/01 03:30:27;;;;;;;29.37;15.07;;;;;;;3.03;54.35;101518.14;1596444;89;20908;-74
2022/05/01 03:32:54;;;;;;;28.12;15.43;;;;;;;3.02;54.37;101513.84;1600443;88;21064;-74
2022/05/01 03:35:20;;;;;;;29.70;15.20;;;;;;;3.03;54.42;101513.44;1581124;88;20965;-73
2022/05/01 03:37:47;;;;;;;23.83;15.50;;;;;;;3.00;54.50;101514.22;1579822;89;21067;-74
2022/05/01 03:40:15;;;;;;;25.23;14.77;;;;;;;2.97;54.48;101509.88;1600904;88;21003;-74
2022/05/01 03:42:42;;;;;;;30.72;15.60;;;;;;;2.98;54.57;101512.02;1600623;88;21244;-74
2022/05/01 03:45:09;;;;;;;28.35;15.55;;;;;;;3.01;54.67;101506.14;1604032;88;21058;-74
2022/05/01 03:47:37;;;;;;;29.15;16.40;;;;;;;3.04;54.71;101510.92;1614373;88;21499;-74
2022/05/01 03:50:05;;;;;;;25.68;15.75;;;;;;;3.06;54.81;101510.56;1610462;88;21111;-73
2022/05/01 03:52:31;;;;;;;28.75;15.45;;;;;;;3.09;54.81;101509.38;1596668;88;20990;-74
2022/05/01 03:54:58;;;;;;;24.92;14.58;;;;;;;3.10;54.90;101506.41;1590836;88;21069;-74
2022/05/01 03:57:24;;;;;;;24.80;14.23;;;;;;;3.12;54.93;101511.15;1584669;88;21028;-74
2022/05/01 03:59:50;;;;;;;27.40;14.10;;;;;;;3.13;55.00;101509.88;1551877;91;20977;-74
2022/05/01 04:02:16;;;;;;;24.47;13.90;;;;;;;3.18;55.03;101517.68;1584798;90;20961;-74
2022/05/01 04:04:46;;;;;;;29.42;14.07;;;;;;;3.25;55.15;101508.09;1585254;90;21502;-74
2022/05/01 04:07:12;;;;;;;20.05;13.22;;;;;;;3.35;55.25;101513.05;1584723;90;20945;-73
2022/05/01 04:09:38;;;;;;;19.15;13.13;;;;;;;3.51;55.40;101515.20;1581026;90;20934;-74
2022/05/01 04:12:06;;;;;;;26.17;13.27;;;;;;;3.66;55.46;101515.16;1527655;90;5000778;-74
2022/05/01 04:14:33;;;;;;;21.82;13.28;;;;;;;3.82;55.41;101511.73;1584801;90;20914;-74
2022/05/01 04:17:01;;;;;;;;;;;;;;;3.93;55.42;101514.16;1613069;88;20935;-74
2022/05/01 04:19:30;;;;;;;27.82;12.60;;;;;;;4.04;56.12;101511.45;1612101;88;20124;-74
2022/05/01 04:21:57;;;;;;;22.65;13.93;;;;;;;4.13;55.53;101515.52;1584657;90;20945;-73
2022/05/01 04:24:23;;;;;;;22.15;13.78;;;;;;;4.22;55.59;101517.00;1597444;89;20987;-74
2022/05/01 04:26:49;;;;;;;24.20;13.45;;;;;;;4.30;55.61;101521.89;1539601;91;20922;-73
2022/05/01 04:32:00;;;;;;;24.90;13.78;;;;;;;4.39;55.66;101517.40;1597487;88;20968;-74
2022/05/01 04:34:27;;;;;;;24.20;13.90;;;;;;;4.42;55.72;101527.72;1584439;90;20918;-74
2022/05/01 04:36:52;;;;;;;23.50;14.68;;;;;;;4.48;55.76;101529.55;1611895;89;20931;-74
2022/05/01 04:39:18;;;;;;;21.73;13.60;;;;;;;4.53;55.86;101533.95;1576737;90;21675;-74
2022/05/01 04:41:44;;;;;;;27.43;13.37;;;;;;;4.58;55.94;101532.37;1611984;88;20907;-74
2022/05/01 04:44:10;;;;;;;23.57;13.63;;;;;;;4.63;56.00;101530.78;1585465;90;20950;-74
2022/05/01 04:46:36;;;;;;;23.38;13.55;;;;;;;4.74;56.05;101530.98;1606771;87;21056;-74
2022/05/01 04:49:03;;;;;;;30.90;14.57;;;;;;;4.87;56.12;101532.13;1612133;89;20950;-73
2022/05/01 04:51:29;;;;;;;25.68;14.40;;;;;;;4.97;56.24;101528.94;1611688;88;20924;-74
2022/05/01 04:53:55;;;;;;;25.07;13.07;;;;;;;5.08;56.29;101535.16;1616723;86;20988;-74
2022/05/01 04:59:07;;;;;;;21.62;13.38;;;;;;;5.30;56.45;101540.28;1610175;87;21456;-74
2022/05/01 05:01:35;;;;;;;26.00;14.47;;;;;;;5.46;56.47;101536.33;1611544;88;20940;-74
2022/05/01 05:04:03;;;;;;;24.02;14.20;;;;;;;5.64;56.67;101535.40;1592323;90;20962;-74
2022/05/01 05:06:29;;;;;;;26.12;15.65;;;;;;;5.89;56.78;101529.88;1613954;88;20934;-74
2022/05/01 05:11:40;;;;;;;24.27;15.40;;;;;;;6.85;57.21;101523.66;1614022;88;20901;-74
2022/05/01 05:14:06;;;;;;;26.00;15.08;;;;;;;7.52;57.28;101531.33;1607711;88;20920;-74
2022/05/01 05:16:33;;;;;;;28.57;16.00;;;;;;;8.14;57.39;101531.92;1614225;88;20962;-74
2022/05/01 05:18:59;;;;;;;21.27;14.93;;;;;;;8.77;57.50;101525.95;1610892;88;20944;-73
2022/05/01 05:21:25;;;;;;;25.88;14.83;;;;;;;9.52;57.60;101527.10;1609308;88;20992;-73
2022/05/01 05:23:51;;;;;;;26.03;14.87;;;;;;;10.30;57.50;101531.96;1601226;89;20905;-73
2022/05/01 05:26:17;;;;;;;28.27;18.13;;;;;;;11.03;57.45;101527.05;1602328;87;21735;-73
2022/05/01 05:28:43;;;;;;;35.23;24.87;;;;;;;11.71;57.33;101531.89;1605234;87;21413;-74
2022/05/01 05:31:10;;;;;;;131.80;59.50;;;;;;;12.35;57.15;101533.16;1605660;87;20897;-74
2022/05/01 05:33:35;;;;;;;40.58;23.85;;;;;;;12.93;57.07;101535.59;1604623;87;20918;-74
2022/05/01 05:36:02;;;;;;;23.87;16.53;;;;;;;13.51;56.97;101535.34;1600504;87;21006;-74
2022/05/01 05:38:28;;;;;;;24.67;15.50;;;;;;;14.07;56.91;101534.91;1598752;87;20956;-74
2022/05/01 05:40:53;;;;;;;28.87;16.20;;;;;;;14.54;56.87;101532.41;1594655;87;20987;-74
2022/05/01 05:43:19;;;;;;;25.63;15.77;;;;;;;15.02;56.89;101531.51;1595300;87;22859;-74
2022/05/01 05:45:45;;;;;;;24.07;14.63;;;;;;;15.56;56.88;101528.18;1596851;87;20902;-74
2022/05/01 05:48:11;;;;;;;24.12;13.72;;;;;;;16.06;56.57;101526.17;1596337;87;20956;-74
2022/05/01 05:50:38;;;;;;;18.30;12.13;;;;;;;16.43;56.38;101523.48;1594719;87;20873;-75
2022/05/01 05:53:04;;;;;;;22.02;13.62;;;;;;;16.87;56.30;101522.30;1595759;87;20953;-74
2022/05/01 05:55:33;;;;;;;20.48;12.82;;;;;;;17.21;56.13;101528.27;1600965;87;21424;-73
2022/05/01 05:57:59;;;;;;;18.30;12.25;;;;;;;17.40;55.82;101526.43;1573641;89;20927;-73
2022/05/01 06:00:25;;;;;;;19.00;12.82;;;;;;;17.52;55.76;101529.53;1570650;88;21607;-74
2022/05/01 06:02:51;;;;;;;26.27;13.70;;;;;;;17.71;55.64;101523.30;1545317;90;20942;-74
2022/05/01 06:05:17;;;;;;;19.32;13.55;;;;;;;17.97;55.54;101525.55;1540624;90;20992;-73
2022/05/01 06:07:43;;;;;;;19.27;13.67;;;;;;;18.20;55.48;101524.32;1552277;90;20981;-74
2022/05/01 06:10:09;;;;;;;21.67;13.30;;;;;;;18.53;55.18;101530.19;1589673;89;21001;-74
2022/05/01 06:12:42;;;;;;;16.73;12.05;;;;;;;18.74;54.83;101525.97;1580419;90;20957;-74
2022/05/01 06:15:10;;;;;;;17.30;10.45;;;;;;;18.84;54.56;101533.91;1573062;89;21013;-74
2022/05/01 06:17:37;;;;;;;18.15;11.80;;;;;;;19.05;54.34;101533.60;1567431;90;20953;-74
2022/05/01 06:20:05;;;;;;;13.25;10.48;;;;;;;19.20;53.97;101530.88;1554193;90;20974;-74
2022/05/01 06:22:31;;;;;;;13.30;9.78;;;;;;;19.30;53.69;101533.52;1564390;89;21026;-73
2022/05/01 06:24:57;;;;;;;14.87;10.17;;;;;;;19.39;53.49;101535.80;1564100;89;21014;-74
2022/05/01 06:27:23;;;;;;;17.67;10.03;;;;;;;19.46;53.24;101534.66;1568507;89;20971;-74
2022/05/01 06:29:48;;;;;;;17.67;12.00;;;;;;;19.48;53.01;101539.39;1554454;90;20961;-74
2022/05/01 06:32:19;;;;;;;38.97;21.07;;;;;;;19.56;52.83;101540.44;1578918;89;20998;-74
2022/05/01 06:34:44;;;;;;;36.33;25.20;;;;;;;19.64;52.68;101539.23;1550081;90;21015;-74
2022/05/01 06:37:10;;;;;;;24.25;16.60;;;;;;;19.72;52.39;101538.48;1580365;90;20945;-74
2022/05/01 06:39:36;;;;;;;17.97;11.30;;;;;;;19.78;52.17;101539.97;1573804;91;21053;-74
2022/05/01 06:42:05;;;;;;;17.90;10.98;;;;;;;19.86;51.85;101546.23;1523426;92;21383;-74
2022/05/01 06:44:32;;;;;;;14.68;9.73;;;;;;;19.84;51.64;101546.30;1554653;91;20938;-74
2022/05/01 06:46:58;;;;;;;15.23;10.98;;;;;;;19.88;51.22;101545.72;1575010;89;20985;-74
2022/05/01 06:49:24;;;;;;;14.07;9.00;;;;;;;19.86;51.11;101547.55;1553530;90;21478;-74
2022/05/01 06:51:50;;;;;;;13.03;9.20;;;;;;;20.01;50.93;101546.48;1548598;91;20932;-75
2022/05/01 06:54:18;;;;;;;11.73;8.80;;;;;;;20.20;50.76;101542.65;1559365;89;20946;-75
2022/05/01 06:56:45;;;;;;;13.75;9.43;;;;;;;20.34;50.41;101544.67;1564737;89;21000;-75
2022/05/01 06:59:11;;;;;;;14.58;8.28;;;;;;;20.44;50.10;101548.20;1555278;91;21002;-75
2022/05/01 07:01:38;;;;;;;13.70;9.45;;;;;;;20.56;49.97;101547.29;1559669;89;20950;-75
2022/05/01 07:04:04;;;;;;;11.85;8.73;;;;;;;20.73;49.64;101548.73;1559044;91;20977;-75
2022/05/01 07:06:30;;;;;;;12.65;8.88;;;;;;;20.78;49.41;101543.67;1554095;91;20948;-74
2022/05/01 07:08:56;;;;;;;13.17;9.10;;;;;;;20.85;49.17;101546.86;1553045;90;20970;-74
2022/05/01 07:11:22;;;;;;;8.87;7.97;;;;;;;21.06;49.01;101550.31;1559568;89;20918;-74
2022/05/01 07:13:48;;;;;;;10.82;8.10;;;;;;;21.25;48.86;101551.23;1562411;91;20957;-75
2022/05/01 07:16:14;;;;;;;11.40;8.37;;;;;;;21.45;48.46;101544.56;1549754;90;21028;-75
2022/05/01 07:18:40;;;;;;;14.60;9.03;;;;;;;21.56;48.28;101546.70;1578426;90;20941;-75
2022/05/01 07:21:06;;;;;;;13.43;9.53;;;;;;;21.68;47.98;101542.17;1577508;90;21021;-76
2022/05/01 07:23:32;;;;;;;9.77;8.23;;;;;;;21.72;47.80;101539.78;1551449;90;21108;-75
2022/05/01 07:25:57;;;;;;;14.07;9.07;;;;;;;;;;1579489;90;21006;-75
2022/05/01 07:28:24;;;;;;;16.27;8.95;;;;;;;22.10;47.47;101544.52;1574883;90;21157;-74
2022/05/01 07:30:50;;;;;;;11.53;8.87;;;;;;;22.43;47.79;101541.11;1579342;90;20946;-74
2022/05/01 07:33:16;;;;;;;13.00;9.13;;;;;;;22.99;47.78;101538.64;1579113;90;20937;-74
2022/05/01 07:35:43;;;;;;;14.33;8.60;;;;;;;23.60;47.30;101541.92;1580437;89;21751;-75
2022/05/01 07:38:09;;;;;;;11.88;8.15;;;;;;;24.01;46.42;101540.89;1582281;89;21104;-74
2022/05/01 07:40:35;;;;;;;14.10;7.80;;;;;;;23.91;45.47;101538.42;1578839;90;20945;-74
2022/05/01 07:43:00;;;;;;;9.10;7.30;;;;;;;23.56;45.40;101537.75;1555301;90;21737;-74
2022/05/01 07:45:27;;;;;;;8.80;7.67;;;;;;;23.23;45.22;101537.80;1567820;90;20957;-75
2022/05/01 07:47:53;;;;;;;9.23;7.83;;;;;;;23.10;45.16;101538.46;1595639;89;21097;-75
2022/05/01 07:50:20;;;;;;;9.10;7.80;;;;;;;23.03;44.76;101537.55;1587664;89;21092;-74
2022/05/01 07:52:47;;;;;;;8.90;7.53;;;;;;;22.85;44.56;101534.59;1569372;90;21263;-75
2022/05/01 07:55:13;;;;;;;31.23;14.10;;;;;;;22.78;44.25;101535.34;1592870;89;20994;-75
2022/05/01 07:57:39;;;;;;;8.57;7.73;;;;;;;22.80;44.03;101529.56;1601436;89;20950;-75
2022/05/01 08:00:07;;;;;;;7.58;6.87;;;;;;;22.86;43.86;101529.23;1575153;89;20982;-75
2022/05/01 08:04:27;;;;;;;7.28;6.33;;;;;;;22.97;43.59;101524.69;1615581;88;20936;-75
2022/05/01 08:05:06;;;;;;;7.30;6.35;;;;;;;22.86;43.11;101525.75;1622461;88;20969;-75
2022/05/01 08:07:32;;;;;;;11.43;5.95;;;;;;;22.70;43.03;101525.20;1616944;88;20948;-75
2022/05/01 08:09:58;;;;;;;8.23;6.47;;;;;;;22.69;42.87;101521.32;1617488;88;20916;-76
2022/05/01 08:12:31;;;;;;;10.10;6.17;;;;;;;22.69;42.62;101520.00;1625592;87;20973;-76
2022/05/01 08:14:57;;;;;;;8.13;6.13;;;;;;;22.69;42.41;101522.17;1625184;88;20933;-76
2022/05/01 08:17:23;;;;;;;12.07;6.10;;;;;;;22.56;42.12;101518.47;1603701;88;21725;-76
2022/05/01 08:22:33;;;;;;;8.93;6.37;;;;;;;22.34;41.50;101521.37;1617034;88;20956;-75
2022/05/01 08:24:59;;;;;;;6.83;6.13;;;;;;;22.24;41.34;101516.17;1592784;90;20960;-75
2022/05/01 08:27:25;;;;;;;7.47;6.50;;;;;;;22.24;41.39;101512.23;1592886;90;20901;-75
2022/05/01 08:29:57;;;;;;;12.23;5.25;;;;;;;22.24;41.34;101511.37;1616186;88;20948;-75
2022/05/01 08:32:23;;;;;;;6.40;4.83;;;;;;;22.31;41.04;101513.62;1625911;88;20897;-76
2022/05/01 08:34:49;;;;;;;7.97;5.13;;;;;;;22.29;40.80;101501.45;1619268;87;20944;-75
2022/05/01 08:37:22;;;;;;;4.97;4.42;;;;;;;22.12;40.32;101504.94;1619375;86;20981;-75
2022/05/01 08:39:48;;;;;;;6.07;4.30;;;;;;;21.93;40.27;101507.59;1606759;86;21020;-75
2022/05/01 08:42:14;;;;;;;9.07;4.97;;;;;;;22.00;40.13;101497.14;1609984;87;21004;-75
2022/05/01 08:44:40;;;;;;;4.90;4.40;;;;;;;22.08;39.85;101499.43;1609576;88;20957;-76
2022/05/01 08:47:26;;;;;;;7.55;4.30;;;;;;;22.11;39.63;101501.91;1612343;86;21496;-75
2022/05/01 08:49:56;;;;;;;4.90;4.03;;;;;;;22.15;39.37;101498.66;1615164;86;20970;-75
2022/05/01 08:52:24;;;;;;;4.22;3.83;;;;;;;22.13;39.25;101501.37;1614068;88;21015;-74
2022/05/01 08:54:50;;;;;;;9.88;4.92;;;;;;;22.11;38.97;101501.45;1608503;86;20948;-74
2022/05/01 08:57:21;;;;;;;7.22;4.33;;;;;;;22.12;38.88;101504.47;1621357;88;20989;-75
2022/05/01 08:59:53;;;;;;;8.93;5.10;;;;;;;22.07;38.66;101499.89;1625160;86;20957;-74
2022/05/01 09:02:20;;;;;;;5.03;4.53;;;;;;;21.96;38.26;101492.10;1620133;86;20965;-74
2022/05/01 09:04:46;;;;;;;5.35;4.60;;;;;;;21.79;38.21;101493.81;1620656;86;21040;-75
2022/05/01 09:07:13;;;;;;;9.63;5.58;;;;;;;21.72;38.13;101491.55;1620830;86;20949;-74
2022/05/01 09:09:39;;;;;;;6.60;4.50;;;;;;;21.56;37.90;101491.89;1596028;89;20943;-74
2022/05/01 09:14:50;;;;;;;6.22;4.60;;;;;;;21.24;37.64;101490.34;1596066;88;20944;-74
2022/05/01 09:17:20;;;;;;;;;;;;;;;21.06;37.45;101487.20;1602695;88;20971;-79
2022/05/01 09:19:50;;;;;;;4.08;3.67;;;;;;;20.93;37.13;101485.59;1568165;90;20588;-76
2022/05/01 09:22:17;;;;;;;5.22;4.42;;;;;;;20.80;37.12;101487.06;1571959;89;21484;-76
2022/05/01 09:24:44;;;;;;;10.43;4.58;;;;;;;20.65;36.89;101482.50;1608179;88;20940;-76
2022/05/01 09:27:31;;;;;;;6.30;4.30;;;;;;;20.51;36.76;101482.25;1599825;88;20949;-77
2022/05/01 09:30:22;;;;;;;5.33;3.77;;;;;;;20.35;36.68;101478.94;1568385;89;21489;-77
2022/05/01 09:32:49;;;;;;;4.37;3.98;;;;;;;20.18;36.46;101476.20;1581872;89;20963;-77
2022/05/01 09:35:35;;;;;;;5.95;4.95;;;;;;;20.03;36.43;101478.16;1564560;90;20989;-77
2022/05/01 09:38:15;;;;;;;5.70;4.08;;;;;;;19.99;36.25;101476.11;1570800;90;20974;-76
2022/05/01 09:40:49;;;;;;;5.50;3.80;;;;;;;19.96;36.18;101479.32;1560251;89;21450;-76
2022/05/01 09:43:44;;;;;;;5.62;3.98;;;;;;;19.93;36.03;101472.42;1575570;89;20986;-75
2022/05/01 09:46:25;;;;;;;5.20;3.55;;;;;;;19.83;35.84;101470.63;1562229;89;21408;-75
2022/05/01 09:49:13;;;;;;;10.48;4.00;;;;;;;19.81;35.75;101460.66;1579786;89;20967;-75
2022/05/01 09:51:46;;;;;;;3.35;2.70;;;;;;;19.84;35.79;101461.84;1573390;90;20951;-75
2022/05/01 09:54:26;;;;;;;7.05;2.83;;;;;;;19.80;35.52;101465.51;1607917;88;21437;-74
2022/05/01 09:56:58;;;;;;;7.05;3.25;;;;;;;19.79;35.47;101466.88;1588675;89;21427;-75
2022/05/01 09:59:27;;;;;;;5.80;3.30;;;;;;;19.77;35.37;101459.53;1587807;88;20995;-75
2022/05/01 10:02:06;;;;;;;4.28;3.00;;;;;;;19.75;35.28;101454.37;1595325;88;20997;-75
2022/05/01 10:04:35;;;;;;;3.55;3.20;;;;;;;19.68;35.22;101451.60;1619045;88;21394;-75
2022/05/01 10:07:03;;;;;;;5.83;3.37;;;;;;;19.66;35.08;101452.58;1617803;88;21420;-75
2022/05/01 10:09:34;;;;;;;7.15;3.70;;;;;;;19.68;35.08;101452.06;1620684;87;21512;-75
2022/05/01 10:12:06;;;;;;;6.65;3.35;;;;;;;19.65;34.94;101439.92;1597097;88;21429;-74
2022/05/01 10:14:35;;;;;;;3.55;2.30;;;;;;;19.59;34.84;101445.41;1608857;86;21409;-75
2022/05/01 10:17:02;;;;;;;3.95;3.20;;;;;;;19.62;34.79;101447.91;1605491;88;21424;-75
2022/05/01 10:19:29;;;;;;;5.78;2.52;;;;;;;19.61;34.76;101439.64;1606941;88;21485;-75
2022/05/01 10:21:57;;;;;;;3.33;1.72;;;;;;;19.60;34.66;101435.77;1597619;88;20945;-75
2022/05/01 10:24:24;;;;;;;2.00;1.52;;;;;;;19.61;34.48;101441.41;1601301;88;20940;-76
2022/05/01 10:27:07;;;;;;;4.50;2.00;;;;;;;19.62;34.35;101436.56;1604324;88;20940;-75
2022/05/01 10:32:21;;;;;;;4.00;2.72;;;;;;;19.61;34.27;101440.10;1605573;88;21008;-75
2022/05/01 10:32:29;;;;;;;5.45;2.90;;;;;;;19.60;34.13;101433.14;1614856;86;21429;-74
2022/05/01 10:35:12;;;;;;;4.50;3.00;;;;;;;19.57;34.00;101435.89;1610137;88;20913;-75
2022/05/01 10:38:18;;;;;;;2.83;2.27;;;;;;;19.52;34.02;101425.58;1600343;86;20940;-73
2022/05/01 10:40:58;;;;;;;5.00;2.67;;;;;;;19.56;33.98;101431.56;1623891;88;21454;-74
2022/05/01 10:43:38;;;;;;;3.62;2.60;;;;;;;19.67;34.00;101428.05;1613001;88;20961;-74
2022/05/01 10:46:22;;;;;;;4.95;2.67;;;;;;;19.70;33.84;101421.36;1624955;87;21504;-74
2022/05/01 10:48:50;;;;;;;6.55;2.87;;;;;;;19.71;33.75;101416.05;1625644;86;20944;-74
2022/05/01 10:51:41;;;;;;;7.15;2.90;;;;;;;19.78;33.48;101421.41;1638496;86;20917;-74
2022/05/01 10:54:16;;;;;;;2.80;2.37;;;;;;;19.79;33.56;101417.87;1618652;86;21048;-74
2022/05/01 10:56:49;;;;;;;2.95;2.52;;;;;;;19.84;33.43;101422.47;1623143;88;21516;-74
2022/05/01 10:59:36;;;;;;;4.22;2.50;;;;;;;19.86;33.41;101425.03;1623977;86;20905;-73
2022/05/01 11:02:08;;;;;;;4.08;2.47;;;;;;;19.84;33.28;101426.41;1624566;88;21517;-74
2022/05/01 11:04:41;;;;;;;3.95;2.25;;;;;;;19.80;33.21;101415.64;1620674;88;20929;-74
2022/05/01 11:07:11;;;;;;;4.62;2.50;;;;;;;19.75;33.11;101412.84;1624853;87;21425;-74
2022/05/01 11:09:46;;;;;;;3.42;2.60;;;;;;;19.77;33.04;101411.83;1623849;88;20932;-74
2022/05/01 11:12:15;;;;;;;3.37;2.65;;;;;;;19.80;32.93;101410.39;1616474;88;20973;-74
2022/05/01 11:14:53;;;;;;;4.72;2.60;;;;;;;19.82;32.92;101412.95;1617078;88;21368;-74
2022/05/01 11:17:44;;;;;;;2.50;2.17;;;;;;;19.83;32.89;101402.39;1625273;87;20981;-74
2022/05/01 11:20:24;;;;;;;2.02;1.82;;;;;;;19.87;32.72;101404.89;1625324;87;20936;-74
2022/05/01 11:22:51;;;;;;;5.10;2.50;;;;;;;19.91;32.81;101407.32;1625417;87;20929;-74
2022/05/01 11:25:34;;;;;;;4.90;2.33;;;;;;;20.00;32.72;101405.63;1618385;87;21527;-74
2022/05/01 11:28:00;;;;;;;3.52;2.87;;;;;;;20.02;32.70;101400.30;1624854;88;20981;-74
2022/05/01 11:30:32;;;;;;;5.57;2.70;;;;;;;20.03;32.62;101400.23;1609016;87;20925;-74
2022/05/01 11:33:08;;;;;;;3.90;2.55;;;;;;;20.06;32.62;101392.69;1621690;88;20957;-73
2022/05/01 11:36:01;;;;;;;4.42;2.42;;;;;;;20.11;32.58;101393.34;1625866;87;20958;-73
2022/05/01 11:38:41;;;;;;;4.53;2.12;;;;;;;20.18;32.38;101392.16;1605866;88;20921;-73
2022/05/01 11:41:10;;;;;;;3.05;2.67;;;;;;;20.20;32.37;101385.53;1606963;88;20941;-74
2022/05/01 11:43:36;;;;;;;5.65;3.10;;;;;;;20.26;32.26;101383.49;1622852;86;20969;-74
2022/05/01 11:46:04;;;;;;;9.63;3.40;;;;;;;20.28;32.26;101387.33;1623750;86;21328;-74
2022/05/01 11:48:32;;;;;;;4.53;2.90;;;;;;;20.29;32.23;101385.95;1619545;88;20929;-74
2022/05/01 11:50:58;;;;;;;6.40;2.87;;;;;;;20.30;32.23;101374.53;1623021;87;21052;-74
2022/05/01 11:53:31;;;;;;;5.53;2.90;;;;;;;20.30;32.21;101375.84;1624744;87;20901;-74